Time;durP1;ratioP1;P1;durP2;ratioP2;P2;SDS_P1;SDS_P2;PMS_P1;PMS_P2;Temp;Humidity;BMP_temperature;BMP_pressure;BME280_temperature;BME280_humidity;BME280_pressure;Samples;Min_cycle;Max_cycle;Signal;HPM_P1;HPM_P2
2021/01/19 00:01:08;;;;;;;32.10;23.00;;;;;;;3.50;88.27;100342.97;5082698;28;20440;-61
2021/01/19 00:03:34;;;;;;;33.23;22.10;;;;;;;3.48;88.69;100342.22;5083657;28;20447;-60
2021/01/19 00:06:01;;;;;;;30.27;22.27;;;;;;;3.52;88.80;100347.19;5082989;28;20460;-60
2021/01/19 00:08:27;;;;;;;31.33;23.77;;;;;;;3.53;88.82;100340.97;5083922;28;20444;-61
2021/01/19 00:10:53;;;;;;;30.23;23.03;;;;;;;3.54;88.81;100341.81;5083288;28;20476;-61
2021/01/19 00:13:20;;;;;;;36.80;23.93;;;;;;;3.48;88.68;100336.94;5083709;28;20456;-61
2021/01/19 00:15:47;;;;;;;30.43;22.70;;;;;;;3.53;88.93;100340.13;5083392;28;20467;-60
2021/01/19 00:18:13;;;;;;;30.80;22.97;;;;;;;3.49;89.11;100328.03;5083293;28;20448;-61
2021/01/19 00:20:40;;;;;;;35.37;24.30;;;;;;;3.50;89.03;100321.81;5083184;28;20499;-60
2021/01/19 00:23:07;;;;;;;30.60;21.30;;;;;;;3.50;89.03;100332.38;5082919;28;20444;-60
2021/01/19 00:25:36;;;;;;;29.63;22.80;;;;;;;3.51;88.83;100321.72;5083802;28;20451;-60
2021/01/19 00:28:02;;;;;;;34.80;23.90;;;;;;;3.51;89.20;100329.66;5076741;28;20459;-61
2021/01/19 00:30:28;;;;;;;31.03;22.90;;;;;;;3.50;88.85;100327.09;5083113;28;20474;-60
2021/01/19 00:32:54;;;;;;;33.40;23.40;;;;;;;3.51;89.00;100310.31;5082658;28;20512;-61
2021/01/19 00:35:20;;;;;;;32.67;24.17;;;;;;;3.51;88.99;100312.97;5083628;28;20436;-60
2021/01/19 00:37:47;;;;;;;30.87;23.17;;;;;;;3.54;89.28;100305.69;5082787;28;20452;-61
2021/01/19 00:40:16;;;;;;;34.00;24.80;;;;;;;3.56;89.22;100298.50;5083586;28;20436;-61
2021/01/19 00:42:42;;;;;;;28.20;22.23;;;;;;;3.52;89.13;100302.25;5082377;28;20478;-60
2021/01/19 00:45:09;;;;;;;30.07;21.23;;;;;;;3.50;89.02;100290.94;5083010;28;20451;-61
2021/01/19 00:47:35;;;;;;;29.93;21.23;;;;;;;3.45;89.42;100294.81;5082898;28;20460;-61
2021/01/19 00:50:02;;;;;;;27.00;19.87;;;;;;;3.51;89.15;100287.38;5083361;28;20436;-61
2021/01/19 00:52:28;;;;;;;24.87;17.87;;;;;;;3.47;89.29;100264.72;5081561;28;20494;-60
2021/01/19 00:54:54;;;;;;;29.00;20.13;;;;;;;3.47;89.93;100271.78;5082595;28;20445;-60
2021/01/19 00:57:21;;;;;;;26.33;19.30;;;;;;;3.44;89.55;100264.03;5082356;28;20456;-61
2021/01/19 00:59:47;;;;;;;26.67;20.00;;;;;;;3.44;89.64;100254.34;5083213;28;20911;-60
2021/01/19 01:02:13;;;;;;;26.93;19.90;;;;;;;3.45;89.69;100265.75;5082264;28;20531;-60
2021/01/19 01:04:40;;;;;;;28.20;19.30;;;;;;;3.47;89.40;100248.88;5082612;28;20432;-61
2021/01/19 01:07:06;;;;;;;26.97;18.33;;;;;;;3.42;89.44;100243.00;5081545;28;20480;-61
2021/01/19 01:09:37;;;;;;;26.93;19.13;;;;;;;3.34;89.69;100253.19;5082580;28;20472;-61
2021/01/19 01:12:03;;;;;;;29.93;19.77;;;;;;;3.37;88.97;100247.72;5082402;28;20480;-61
2021/01/19 01:14:30;;;;;;;26.90;18.30;;;;;;;3.34;88.93;100243.47;5082396;28;20433;-60
2021/01/19 01:16:56;;;;;;;24.30;16.13;;;;;;;3.32;89.13;100241.88;5081850;28;20452;-60
2021/01/19 01:19:23;;;;;;;19.27;14.90;;;;;;;3.29;89.10;100248.19;5082943;28;20417;-61
2021/01/19 01:21:49;;;;;;;24.40;17.20;;;;;;;3.31;88.88;100238.38;5081245;28;20458;-61
2021/01/19 01:24:15;;;;;;;25.80;16.97;;;;;;;3.28;89.11;100235.06;5082335;28;20428;-61
2021/01/19 01:26:41;;;;;;;26.43;16.60;;;;;;;3.30;88.90;100223.47;5081689;28;20440;-61
2021/01/19 01:29:07;;;;;;;20.97;16.03;;;;;;;3.25;89.25;100220.25;5082677;28;20424;-61
2021/01/19 01:31:35;;;;;;;23.20;16.50;;;;;;;3.30;89.20;100219.97;5081633;28;20480;-60
2021/01/19 01:34:01;;;;;;;22.20;16.90;;;;;;;3.35;88.95;100216.09;5082451;28;20460;-61
2021/01/19 01:36:27;;;;;;;21.27;17.03;;;;;;;3.36;89.19;100212.50;5081531;28;20448;-61
2021/01/19 01:38:54;;;;;;;30.83;16.47;;;;;;;3.44;88.86;100211.16;5082467;28;20432;-61
2021/01/19 01:41:21;;;;;;;23.50;15.07;;;;;;;3.42;88.61;100203.38;5081036;28;20440;-61
2021/01/19 01:43:47;;;;;;;21.40;15.73;;;;;;;3.45;88.72;100200.50;5082481;28;20455;-61
2021/01/19 01:46:15;;;;;;;21.70;16.87;;;;;;;3.49;88.34;100207.31;5080958;28;20446;-60
2021/01/19 01:48:45;;;;;;;20.97;15.30;;;;;;;3.55;87.83;100199.00;5081832;28;20443;-61
2021/01/19 01:51:11;;;;;;;22.80;12.83;;;;;;;3.54;88.00;100189.38;5081104;28;20483;-60
2021/01/19 01:53:39;;;;;;;19.20;15.60;;;;;;;3.52;88.17;100196.53;5081202;28;20452;-61
2021/01/19 01:56:06;;;;;;;25.63;14.30;;;;;;;3.55;88.06;100180.47;5081868;28;20963;-61
2021/01/19 01:58:32;;;;;;;18.57;14.70;;;;;;;3.54;88.30;100183.22;5082149;28;20475;-61
2021/01/19 02:00:59;;;;;;;20.73;14.17;;;;;;;3.53;88.13;100182.38;5081118;28;20766;-61
2021/01/19 02:03:25;;;;;;;15.60;11.33;;;;;;;3.58;87.72;100184.75;5082017;28;20452;-61
2021/01/19 02:05:52;;;;;;;17.90;15.10;;;;;;;3.58;87.77;100171.53;5081117;28;20459;-61
2021/01/19 02:08:24;;;;;;;18.60;13.50;;;;;;;3.57;87.78;100178.59;5081803;28;20501;-61
2021/01/19 02:11:08;;;;;;;17.90;13.20;;;;;;;3.61;87.66;100170.47;5081241;28;20475;-61
2021/01/19 02:13:41;;;;;;;14.50;12.80;;;;;;;3.62;87.59;100167.72;5061673;28;20456;-61
2021/01/19 02:16:15;;;;;;;19.83;13.37;;;;;;;3.57;87.54;100178.59;5077073;28;20451;-62
2021/01/19 02:18:50;;;;;;;21.33;13.60;;;;;;;3.63;87.39;100160.63;5081503;28;21073;-61
2021/01/19 02:21:38;;;;;;;17.23;12.73;;;;;;;3.66;87.04;100153.34;5080635;28;20487;-61
2021/01/19 02:24:10;;;;;;;17.53;13.50;;;;;;;3.64;87.43;100135.91;5081977;28;20428;-61
2021/01/19 02:26:58;;;;;;;19.13;13.63;;;;;;;3.64;87.64;100136.75;5081208;28;20444;-61
2021/01/19 02:29:38;;;;;;;21.73;13.50;;;;;;;3.64;87.43;100135.91;5081328;28;20930;-61
2021/01/19 02:32:14;;;;;;;16.40;13.73;;;;;;;3.65;87.18;100129.69;5071531;28;20480;-61
2021/01/19 02:34:46;;;;;;;18.20;14.63;;;;;;;3.64;87.20;100125.34;5076505;28;20448;-62
2021/01/19 02:37:14;;;;;;;21.20;14.30;;;;;;;3.67;87.26;100107.47;5079900;28;20467;-61
2021/01/19 02:39:45;;;;;;;20.80;13.87;;;;;;;3.61;87.89;100107.88;5078485;28;20484;-62
2021/01/19 02:42:13;;;;;;;19.87;12.67;;;;;;;3.68;87.60;100105.66;5080608;28;20481;-61
2021/01/19 02:44:41;;;;;;;18.17;13.90;;;;;;;3.66;87.20;100102.28;5081456;28;20440;-61
2021/01/19 02:47:08;;;;;;;21.47;14.10;;;;;;;3.62;87.67;100101.63;5080387;28;20483;-62
2021/01/19 02:49:35;;;;;;;19.73;12.10;;;;;;;3.67;87.42;100093.41;5081175;28;20444;-61
2021/01/19 02:52:01;;;;;;;16.93;13.00;;;;;;;3.72;86.87;100099.25;5069459;28;20492;-61
2021/01/19 02:54:28;;;;;;;21.27;12.33;;;;;;;3.69;87.07;100083.59;5076285;28;20444;-61
2021/01/19 02:57:09;;;;;;;11.70;10.50;;;;;;;3.69;87.20;100092.34;5081920;28;20480;-61
2021/01/19 02:59:41;;;;;;;17.20;11.53;;;;;;;3.69;87.02;100078.28;5085275;28;20511;-61
2021/01/19 03:02:11;;;;;;;17.70;11.90;;;;;;;3.63;87.13;100065.47;5084668;28;20909;-61
2021/01/19 03:04:38;;;;;;;17.30;9.13;;;;;;;3.65;86.76;100061.78;5085077;28;20535;-60
2021/01/19 03:07:06;;;;;;;19.93;11.73;;;;;;;3.67;86.58;100059.06;5083860;28;20543;-60
2021/01/19 03:09:35;;;;;;;14.43;9.93;;;;;;;3.68;85.96;100058.94;5084877;28;20495;-61
2021/01/19 03:12:02;;;;;;;14.90;7.70;;;;;;;3.66;86.03;100046.75;5084205;28;20519;-61
2021/01/19 03:14:29;;;;;;;11.63;8.37;;;;;;;3.67;86.36;100051.13;5084622;28;20432;-60
2021/01/19 03:17:03;;;;;;;16.30;9.60;;;;;;;3.60;86.09;100045.38;5084088;28;20448;-61
2021/01/19 03:19:33;;;;;;;19.73;8.90;;;;;;;3.68;86.09;100029.88;5084854;28;20450;-60
2021/01/19 03:21:59;;;;;;;18.00;10.93;;;;;;;3.60;86.83;100028.69;5083181;28;20458;-61
2021/01/19 03:24:25;;;;;;;18.20;13.00;;;;;;;3.54;87.46;100035.19;5084861;28;20864;-60
2021/01/19 03:26:52;;;;;;;14.27;11.70;;;;;;;3.54;87.14;100019.34;5083902;28;20451;-61
2021/01/19 03:29:18;;;;;;;19.60;11.93;;;;;;;3.54;86.82;100019.34;5084722;28;20479;-61
2021/01/19 03:31:44;;;;;;;16.97;11.80;;;;;;;3.53;86.94;100017.66;5083731;28;20994;-61
2021/01/19 03:34:10;;;;;;;19.77;11.50;;;;;;;3.53;86.71;100007.09;5084592;28;20432;-61
2021/01/19 03:36:37;;;;;;;20.07;13.27;;;;;;;3.46;86.89;99997.88;5083527;28;20452;-61
2021/01/19 03:39:04;;;;;;;21.90;12.70;;;;;;;3.48;86.53;99998.63;5084299;28;20479;-61
2021/01/19 03:41:30;;;;;;;20.00;12.83;;;;;;;3.45;86.73;99989.06;5084117;28;20436;-61
2021/01/19 03:43:56;;;;;;;19.00;12.67;;;;;;;3.47;86.41;99994.25;5083907;28;20475;-61
2021/01/19 03:46:22;;;;;;;17.37;12.30;;;;;;;3.44;86.10;99974.19;5084014;28;20845;-61
2021/01/19 03:48:48;;;;;;;16.80;11.80;;;;;;;3.42;86.49;99984.03;5084141;28;20479;-61
2021/01/19 03:51:15;;;;;;;21.03;13.63;;;;;;;3.44;86.37;99968.03;5082873;28;20507;-61
2021/01/19 03:53:42;;;;;;;15.80;12.33;;;;;;;3.46;86.24;99961.72;5083070;28;20470;-61
2021/01/19 03:56:09;;;;;;;15.40;11.83;;;;;;;3.37;86.15;99960.53;5084090;28;20436;-61
2021/01/19 03:58:35;;;;;;;14.87;11.87;;;;;;;3.42;85.14;99957.59;5083318;28;20456;-61
2021/01/19 04:01:02;;;;;;;14.23;10.27;;;;;;;3.45;85.11;99961.81;5083973;28;20447;-61
2021/01/19 04:03:28;;;;;;;17.70;10.33;;;;;;;3.43;84.66;99946.06;5084167;28;20951;-61
2021/01/19 04:05:54;;;;;;;12.23;8.33;;;;;;;3.46;84.51;99939.72;5083585;28;20909;-61
2021/01/19 04:08:20;;;;;;;11.73;7.70;;;;;;;3.44;84.04;99928.41;5082577;28;20456;-61
2021/01/19 04:10:49;;;;;;;10.27;7.57;;;;;;;3.46;83.78;99927.34;5083486;28;20480;-61
2021/01/19 04:13:16;;;;;;;13.73;6.40;;;;;;;3.48;83.06;99916.69;5083537;28;20547;-61
2021/01/19 04:15:42;;;;;;;7.53;6.03;;;;;;;3.50;82.93;99907.69;5083767;28;20456;-61
2021/01/19 04:18:08;;;;;;;9.63;5.87;;;;;;;3.47;82.94;99896.47;5083656;28;20491;-60
2021/01/19 04:20:34;;;;;;;11.87;7.57;;;;;;;3.48;82.85;99892.91;5083831;28;20987;-61
2021/01/19 04:23:00;;;;;;;10.43;7.43;;;;;;;3.42;82.73;99888.00;5082164;28;20894;-61
2021/01/19 04:25:26;;;;;;;7.10;5.33;;;;;;;3.48;82.35;99885.81;5083782;28;20471;-60
2021/01/19 04:27:53;;;;;;;7.10;5.83;;;;;;;3.44;82.47;99888.75;5083009;28;20470;-60
2021/01/19 04:30:20;;;;;;;8.47;5.27;;;;;;;3.46;82.38;99894.81;5083421;28;20836;-60
2021/01/19 04:32:47;;;;;;;7.70;5.20;;;;;;;3.45;82.04;99866.69;5082455;28;20924;-60
2021/01/19 04:35:14;;;;;;;5.60;4.50;;;;;;;3.48;81.23;99866.47;5083586;28;20432;-61
2021/01/19 04:37:40;;;;;;;7.37;3.97;;;;;;;3.45;80.93;99864.88;5082241;28;20451;-61
2021/01/19 04:40:07;;;;;;;4.13;3.73;;;;;;;3.46;81.22;99841.94;5083457;28;20437;-60
2021/01/19 04:42:36;;;;;;;9.13;3.50;;;;;;;3.43;81.13;99855.38;5082491;28;20452;-60
2021/01/19 04:45:05;;;;;;;5.87;3.53;;;;;;;3.41;80.70;99855.47;5082851;28;20439;-61
2021/01/19 04:47:32;;;;;;;10.37;3.80;;;;;;;3.45;80.77;99845.53;5082767;28;20456;-60
2021/01/19 04:49:59;;;;;;;4.73;3.90;;;;;;;3.36;80.87;99837.28;5082797;28;20455;-61
2021/01/19 04:52:27;;;;;;;9.30;3.30;;;;;;;3.41;80.82;99831.69;5080768;28;20516;-61
2021/01/19 04:55:04;;;;;;;6.40;3.60;;;;;;;3.43;80.77;99835.06;5083028;28;20432;-59
2021/01/19 04:57:32;;;;;;;3.50;3.10;;;;;;;3.41;80.07;99805.25;5082362;28;20443;-60
2021/01/19 05:00:01;;;;;;;3.83;3.43;;;;;;;3.39;79.93;99792.16;5083276;28;20440;-60
2021/01/19 05:03:01;;;;;;;5.67;3.67;;;;;;;3.44;79.63;99798.91;5082559;28;20452;-61
2021/01/19 05:06:03;;;;;;;5.33;3.03;;;;;;;3.40;79.82;99790.34;5073933;28;20470;-61
2021/01/19 05:09:00;;;;;;;4.30;3.00;;;;;;;3.44;79.38;99783.06;5082374;28;20458;-61
2021/01/19 05:11:29;;;;;;;8.93;3.20;;;;;;;3.43;79.71;99781.38;5068428;28;20492;-61
2021/01/19 05:14:01;;;;;;;4.57;3.10;;;;;;;3.44;79.91;99769.84;5060695;28;21137;-60
2021/01/19 05:16:31;;;;;;;3.13;2.60;;;;;;;3.40;79.50;99774.50;5076085;28;20451;-61
2021/01/19 05:18:57;;;;;;;6.53;2.93;;;;;;;3.38;79.44;99774.59;5081282;28;20464;-61
2021/01/19 05:21:24;;;;;;;4.53;2.53;;;;;;;3.40;79.28;99766.56;5079540;28;20447;-61
2021/01/19 05:23:50;;;;;;;3.93;2.60;;;;;;;3.43;79.67;99755.78;5081112;28;20474;-61
2021/01/19 05:26:18;;;;;;;7.67;3.10;;;;;;;3.44;79.04;99728.41;5081197;28;20447;-61
2021/01/19 05:28:46;;;;;;;4.73;2.50;;;;;;;3.36;80.28;99741.31;5080518;28;20455;-62
2021/01/19 05:31:25;;;;;;;7.53;3.30;;;;;;;3.33;79.89;99723.91;5080860;28;20456;-61
2021/01/19 05:33:59;;;;;;;8.67;2.83;;;;;;;3.26;81.21;99730.53;5080332;28;20444;-60
2021/01/19 05:36:27;;;;;;;4.87;2.90;;;;;;;3.26;82.20;99719.97;5080162;28;20488;-61
2021/01/19 05:38:55;;;;;;;3.67;2.53;;;;;;;3.15;81.21;99712.78;5080896;28;20439;-60
2021/01/19 05:41:30;;;;;;;4.77;2.20;;;;;;;3.13;82.42;99690.94;5080527;28;20962;-60
2021/01/19 05:44:07;;;;;;;5.73;3.37;;;;;;;3.03;83.31;99705.72;5080005;28;20455;-60
2021/01/19 05:46:34;;;;;;;3.07;2.20;;;;;;;3.09;82.00;99692.09;5080631;28;20444;-61
2021/01/19 05:49:02;;;;;;;9.20;2.97;;;;;;;3.03;82.83;99687.22;5080384;28;20459;-61
2021/01/19 05:51:29;;;;;;;6.50;3.00;;;;;;;2.95;84.23;99681.63;5079410;28;20511;-63
2021/01/19 05:53:56;;;;;;;3.23;2.10;;;;;;;3.00;83.40;99676.88;5079877;28;20452;-62
2021/01/19 05:56:22;;;;;;;4.70;2.70;;;;;;;3.01;82.61;99683.88;5080768;28;20571;-61
2021/01/19 05:58:50;;;;;;;4.43;2.50;;;;;;;3.00;83.60;99666.31;5079880;28;20452;-61
2021/01/19 06:01:30;;;;;;;5.80;2.70;;;;;;;2.99;83.45;99667.28;5080827;28;20440;-61
2021/01/19 06:03:57;;;;;;;4.57;2.93;;;;;;;3.05;82.40;99650.16;5080629;28;20945;-60
2021/01/19 06:06:25;;;;;;;6.60;3.20;;;;;;;3.04;82.78;99645.81;5079237;28;20456;-61
2021/01/19 06:09:00;;;;;;;6.97;3.90;;;;;;;3.00;82.58;99647.84;5079849;28;20523;-61
2021/01/19 06:11:27;;;;;;;7.20;2.90;;;;;;;3.01;83.78;99645.09;5064042;28;20470;-61
2021/01/19 06:13:54;;;;;;;4.23;2.30;;;;;;;3.03;83.50;99628.31;5080814;28;20473;-60
2021/01/19 06:16:22;;;;;;;7.20;3.13;;;;;;;2.92;84.39;99629.06;5077202;28;20763;-62
2021/01/19 06:18:49;;;;;;;7.80;2.30;;;;;;;2.94;84.11;99614.78;5067517;28;20463;-63
2021/01/19 06:21:28;;;;;;;7.17;2.80;;;;;;;2.87;84.53;99600.34;5072374;28;20688;-62
2021/01/19 06:23:55;;;;;;;5.23;3.00;;;;;;;2.86;85.43;99603.06;5076189;28;20459;-61
2021/01/19 06:26:21;;;;;;;5.13;2.90;;;;;;;2.87;85.42;99615.34;5080091;28;20435;-62
2021/01/19 06:28:47;;;;;;;3.50;2.57;;;;;;;2.84;85.29;99587.34;5074992;28;20456;-61
2021/01/19 06:31:14;;;;;;;5.77;2.50;;;;;;;2.86;85.41;99576.69;5076577;28;20467;-63
2021/01/19 06:33:42;;;;;;;7.67;2.53;;;;;;;2.82;85.86;99584.81;5077929;28;20468;-61
2021/01/19 06:36:08;;;;;;;9.07;2.73;;;;;;;2.82;85.99;99581.31;5068961;28;20993;-61
2021/01/19 06:38:35;;;;;;;12.17;3.10;;;;;;;2.82;86.55;99578.69;5062489;28;20471;-61
2021/01/19 06:41:02;;;;;;;4.17;2.80;;;;;;;2.78;87.14;99593.06;5070536;28;20919;-61
2021/01/19 06:43:35;;;;;;;12.73;5.57;;;;;;;2.74;88.07;99594.22;5064785;28;20457;-60
2021/01/19 06:46:07;;;;;;;5.13;2.47;;;;;;;2.79;87.39;99565.69;5078845;28;20515;-61
2021/01/19 06:48:35;;;;;;;5.70;3.53;;;;;;;2.73;87.85;99569.63;5071941;28;20515;-63
2021/01/19 06:51:02;;;;;;;8.97;4.20;;;;;;;2.72;88.02;99553.88;5071128;28;20452;-60
2021/01/19 06:53:34;;;;;;;13.40;3.50;;;;;;;2.69;88.70;99557.59;5069655;28;20480;-59
2021/01/19 06:56:10;;;;;;;7.00;3.60;;;;;;;2.76;88.24;99550.94;5077712;28;20449;-60
2021/01/19 06:58:48;;;;;;;7.73;3.63;;;;;;;2.75;89.00;99557.16;5072076;28;20462;-61
2021/01/19 07:01:15;;;;;;;5.40;3.80;;;;;;;2.76;89.00;99534.22;5077743;28;20935;-60
2021/01/19 07:03:43;;;;;;;7.67;3.93;;;;;;;2.79;89.36;99537.50;5078831;28;20448;-60
2021/01/19 07:06:10;;;;;;;6.57;4.10;;;;;;;2.70;89.53;99535.50;5061788;28;20464;-61
2021/01/19 07:09:06;;;;;;;5.27;2.83;;;;;;;2.74;89.99;99513.25;5071758;28;20448;-61
2021/01/19 07:12:11;;;;;;;8.53;3.40;;;;;;;2.67;90.05;99514.63;5064063;28;20535;-61
2021/01/19 07:14:43;;;;;;;11.60;3.20;;;;;;;2.66;90.20;99510.31;5065605;28;20537;-61
2021/01/19 07:17:11;;;;;;;8.70;4.10;;;;;;;2.66;90.42;99515.59;5063547;28;20449;-61
2021/01/19 07:19:46;;;;;;;6.43;3.20;;;;;;;2.61;91.13;99505.34;5071052;28;20444;-61
2021/01/19 07:22:45;;;;;;;5.93;3.27;;;;;;;2.70;90.59;99497.72;5069720;28;20449;-62
2021/01/19 07:25:12;;;;;;;7.97;3.50;;;;;;;2.70;90.76;99488.00;5061529;28;20507;-64
2021/01/19 07:27:38;;;;;;;5.67;4.33;;;;;;;2.70;90.73;99485.38;5069981;28;20457;-64
2021/01/19 07:30:06;;;;;;;8.93;3.40;;;;;;;2.69;90.63;99470.50;5077906;28;20967;-63
2021/01/19 07:32:34;;;;;;;6.50;3.87;;;;;;;2.69;91.26;99451.16;5077778;28;20487;-61
2021/01/19 07:35:01;;;;;;;5.40;2.90;;;;;;;2.72;91.03;99466.78;5071660;28;20451;-61
2021/01/19 07:37:29;;;;;;;11.87;4.03;;;;;;;2.72;91.58;99485.25;5073707;28;20456;-62
2021/01/19 07:39:55;;;;;;;7.87;3.77;;;;;;;2.73;91.97;99485.16;5075369;28;20448;-62
2021/01/19 07:42:22;;;;;;;13.23;4.50;;;;;;;2.64;92.34;99470.00;5076450;28;20474;-62
2021/01/19 07:44:56;;;;;;;6.37;3.73;;;;;;;2.72;92.01;99479.97;5074897;28;20899;-63
2021/01/19 07:47:34;;;;;;;5.13;3.97;;;;;;;2.71;92.38;99488.84;5074993;28;20451;-63
2021/01/19 07:50:06;;;;;;;6.90;4.00;;;;;;;2.69;92.75;99467.88;5070615;28;20579;-63
2021/01/19 07:52:37;;;;;;;5.90;3.93;;;;;;;2.69;92.34;99459.09;5071272;28;20487;-62
2021/01/19 07:55:27;;;;;;;8.90;3.70;;;;;;;2.64;92.65;99457.63;5077890;28;20959;-63
2021/01/19 07:57:54;;;;;;;4.33;3.60;;;;;;;2.72;92.39;99466.78;5056281;28;20460;-63
2021/01/19 08:00:24;;;;;;;5.47;4.27;;;;;;;2.72;92.91;99457.06;5077978;28;20459;-64
2021/01/19 08:02:50;;;;;;;8.50;4.60;;;;;;;2.67;93.26;99448.63;5079934;28;20460;-63
2021/01/19 08:05:26;;;;;;;5.83;3.60;;;;;;;2.74;92.59;99439.34;5064777;28;20440;-60
2021/01/19 08:07:53;;;;;;;5.90;4.00;;;;;;;2.73;92.43;99432.38;5079732;28;20447;-61
2021/01/19 08:10:21;;;;;;;8.50;3.53;;;;;;;2.70;92.95;99416.75;5072873;28;20492;-61
2021/01/19 08:12:49;;;;;;;3.80;3.50;;;;;;;2.72;92.64;99416.63;5079436;28;20529;-62
2021/01/19 08:15:19;;;;;;;6.77;4.43;;;;;;;2.77;93.17;99410.06;5076923;28;20472;-64
2021/01/19 08:17:50;;;;;;;6.37;4.00;;;;;;;2.75;92.76;99403.22;5076605;28;20791;-64
2021/01/19 08:20:24;;;;;;;5.83;4.67;;;;;;;2.79;92.58;99402.03;5078127;28;20448;-62
2021/01/19 08:22:51;;;;;;;6.10;3.50;;;;;;;2.80;93.20;99388.72;5077585;28;20509;-63
2021/01/19 08:25:24;;;;;;;8.90;3.77;;;;;;;2.77;92.83;99385.47;5078031;28;20448;-62
2021/01/19 08:27:51;;;;;;;5.57;4.30;;;;;;;2.76;93.05;99382.00;5077733;28;20456;-61
2021/01/19 08:30:24;;;;;;;3.73;3.17;;;;;;;2.81;92.85;99377.22;5078435;28;20454;-63
2021/01/19 08:32:51;;;;;;;5.37;3.50;;;;;;;2.85;92.85;99369.94;5076416;28;20551;-64
2021/01/19 08:35:17;;;;;;;6.43;3.67;;;;;;;2.88;92.79;99371.47;5080798;28;20459;-61
2021/01/19 08:37:49;;;;;;;5.37;3.10;;;;;;;2.89;92.87;99362.63;5077980;28;20897;-62
2021/01/19 08:40:23;;;;;;;3.67;2.70;;;;;;;2.91;92.58;99364.19;5075221;28;20560;-64
2021/01/19 08:42:50;;;;;;;6.07;3.90;;;;;;;2.93;92.58;99353.50;5079636;28;20495;-63
2021/01/19 08:45:27;;;;;;;4.07;2.67;;;;;;;2.94;92.40;99360.47;5079626;28;20444;-62
2021/01/19 08:47:56;;;;;;;2.90;2.60;;;;;;;2.92;92.74;99351.84;5077559;28;20455;-62
2021/01/19 08:50:22;;;;;;;8.50;3.27;;;;;;;2.95;92.97;99339.25;5079231;28;20755;-65
2021/01/19 08:52:50;;;;;;;4.30;2.87;;;;;;;2.92;92.90;99342.13;5076436;28;20725;-64
2021/01/19 08:55:18;;;;;;;5.70;3.17;;;;;;;2.94;93.37;99345.47;5078603;28;20526;-64
2021/01/19 08:57:49;;;;;;;4.43;2.80;;;;;;;2.96;92.74;99340.09;5079529;28;20462;-59
2021/01/19 09:00:24;;;;;;;2.57;2.37;;;;;;;2.97;93.13;99336.50;5076917;28;20542;-62
2021/01/19 09:02:50;;;;;;;5.17;2.63;;;;;;;3.00;93.01;99336.25;5076062;28;20479;-62
2021/01/19 09:05:24;;;;;;;5.30;2.50;;;;;;;2.98;92.29;99319.69;5077727;28;20875;-62
2021/01/19 09:07:51;;;;;;;3.90;2.40;;;;;;;3.00;92.96;99328.31;5079168;28;20456;-63
2021/01/19 09:10:25;;;;;;;3.00;2.70;;;;;;;3.05;92.47;99320.06;5077856;28;20545;-63
2021/01/19 09:12:52;;;;;;;5.00;3.30;;;;;;;3.00;92.96;99323.91;5075929;28;20574;-63
2021/01/19 09:15:19;;;;;;;5.70;3.27;;;;;;;3.06;92.70;99301.47;5076089;28;20452;-63
2021/01/19 09:17:53;;;;;;;4.67;3.10;;;;;;;3.08;92.80;99311.91;5076738;28;20455;-62
2021/01/19 09:20:19;;;;;;;4.50;3.17;;;;;;;3.09;92.84;99297.75;5074356;28;20456;-61
2021/01/19 09:22:46;;;;;;;3.40;3.03;;;;;;;3.11;92.46;99287.94;5075655;28;20539;-61
2021/01/19 09:25:14;;;;;;;3.10;2.00;;;;;;;3.12;93.23;99285.16;5075844;28;20462;-61
2021/01/19 09:27:41;;;;;;;4.33;3.03;;;;;;;3.16;93.10;99291.03;5077713;28;20455;-61
2021/01/19 09:30:10;;;;;;;5.60;3.47;;;;;;;3.14;92.97;99285.03;5071881;28;20451;-60
2021/01/19 09:32:39;;;;;;;4.10;2.80;;;;;;;3.23;92.61;99276.41;5076270;28;20495;-64
2021/01/19 09:35:08;;;;;;;3.00;2.67;;;;;;;3.23;92.84;99265.84;5076735;28;21009;-64
2021/01/19 09:37:34;;;;;;;3.57;2.83;;;;;;;3.22;92.63;99264.16;5062466;28;20460;-65
2021/01/19 09:40:00;;;;;;;5.23;2.60;;;;;;;3.26;93.33;99259.47;5068065;28;20456;-64
2021/01/19 09:42:28;;;;;;;2.53;2.33;;;;;;;3.34;92.92;99257.09;5075508;28;20456;-64
2021/01/19 09:44:54;;;;;;;2.23;2.03;;;;;;;3.34;92.34;99254.44;5075801;28;20443;-62
2021/01/19 09:47:24;;;;;;;3.17;2.87;;;;;;;3.33;93.11;99260.69;5076778;28;20555;-63
2021/01/19 09:49:52;;;;;;;6.47;2.93;;;;;;;3.38;93.04;99245.31;5076985;28;20443;-62
2021/01/19 09:52:20;;;;;;;3.30;2.53;;;;;;;3.37;92.39;99233.09;5075237;28;20501;-62
2021/01/19 09:54:46;;;;;;;3.37;2.63;;;;;;;3.41;92.71;99236.31;5079196;28;20444;-61
2021/01/19 09:57:13;;;;;;;3.67;2.60;;;;;;;3.38;92.75;99240.03;5073695;28;20455;-62
2021/01/19 09:59:41;;;;;;;4.60;2.80;;;;;;;3.41;92.58;99225.75;5076137;28;20468;-62
2021/01/19 10:02:08;;;;;;;4.80;3.00;;;;;;;3.46;92.13;99236.81;5072997;28;20460;-64
2021/01/19 10:04:35;;;;;;;6.90;2.57;;;;;;;3.49;91.99;99223.34;5063439;28;20474;-64
2021/01/19 10:07:02;;;;;;;6.40;3.40;;;;;;;3.55;92.08;99233.44;5061741;28;20463;-64
2021/01/19 10:09:29;;;;;;;3.00;2.73;;;;;;;3.47;92.25;99220.84;5074902;28;20487;-65
2021/01/19 10:11:57;;;;;;;3.27;2.70;;;;;;;3.53;91.70;99222.16;5078803;28;20490;-65
2021/01/19 10:14:33;;;;;;;3.20;2.63;;;;;;;3.46;92.00;99216.50;5079495;28;20527;-66
2021/01/19 10:17:00;;;;;;;3.43;3.10;;;;;;;3.50;92.33;99212.66;5077051;28;20443;-66
2021/01/19 10:19:28;;;;;;;4.30;3.37;;;;;;;3.50;92.08;99214.47;5079989;28;20448;-65
2021/01/19 10:21:56;;;;;;;5.20;3.30;;;;;;;3.51;91.83;99202.94;5078441;28;20513;-66
2021/01/19 10:24:24;;;;;;;3.47;2.80;;;;;;;3.46;92.17;99202.47;5078673;28;20440;-65
2021/01/19 10:27:01;;;;;;;3.50;2.67;;;;;;;3.52;91.63;99201.97;5075789;28;20456;-65
2021/01/19 10:29:29;;;;;;;3.47;2.37;;;;;;;3.49;91.34;99199.56;5076733;28;20448;-65
2021/01/19 10:31:59;;;;;;;3.70;2.70;;;;;;;3.51;91.63;99195.00;5075597;28;20514;-65
2021/01/19 10:34:27;;;;;;;3.47;2.17;;;;;;;3.47;91.94;99198.84;5062808;28;20495;-65
2021/01/19 10:36:56;;;;;;;3.80;2.40;;;;;;;3.47;91.92;99185.63;5075885;28;20455;-65
2021/01/19 10:39:22;;;;;;;6.23;2.80;;;;;;;3.48;91.69;99189.97;5075304;28;21408;-64
2021/01/19 10:41:49;;;;;;;2.90;2.53;;;;;;;3.41;92.36;99186.13;5072429;28;20465;-65
2021/01/19 10:44:16;;;;;;;2.97;2.43;;;;;;;3.43;92.05;99171.81;5071952;28;20452;-65
2021/01/19 10:46:43;;;;;;;3.20;2.50;;;;;;;3.42;92.21;99175.44;5075816;28;20518;-66
2021/01/19 10:49:11;;;;;;;3.20;2.90;;;;;;;3.48;92.19;99171.47;5077136;28;20515;-66
2021/01/19 10:51:39;;;;;;;2.93;2.70;;;;;;;3.46;92.42;99168.09;5074772;28;20436;-66
2021/01/19 10:54:10;;;;;;;2.93;2.20;;;;;;;3.52;92.18;99170.25;5074326;28;20448;-66
2021/01/19 10:56:39;;;;;;;2.50;1.93;;;;;;;3.52;92.20;99172.88;5075740;28;20444;-66
2021/01/19 10:59:06;;;;;;;1.77;1.67;;;;;;;3.49;92.09;99157.28;5075953;28;20490;-65
2021/01/19 11:01:33;;;;;;;3.23;1.90;;;;;;;3.46;92.36;99161.00;5075470;28;20456;-66
2021/01/19 11:03:59;;;;;;;2.13;1.93;;;;;;;3.47;92.68;99161.84;5062267;28;20772;-66
2021/01/19 11:06:33;;;;;;;2.90;2.37;;;;;;;3.54;92.62;99153.31;5059270;28;20476;-65
2021/01/19 11:09:00;;;;;;;5.13;2.33;;;;;;;3.51;92.63;99161.50;5074876;28;20452;-62
2021/01/19 11:11:27;;;;;;;3.47;2.30;;;;;;;3.61;92.48;99158.97;5074832;28;20444;-62
2021/01/19 11:13:59;;;;;;;2.60;2.00;;;;;;;3.59;91.95;99152.94;5074101;28;20860;-62
2021/01/19 11:16:30;;;;;;;2.60;2.40;;;;;;;3.52;92.51;99147.28;5071310;28;20448;-63
2021/01/19 11:18:59;;;;;;;1.70;1.60;;;;;;;3.58;93.12;99151.28;5079316;28;20460;-63
2021/01/19 11:21:26;;;;;;;2.50;2.30;;;;;;;3.62;93.21;99144.75;5076733;28;20467;-64
2021/01/19 11:23:52;;;;;;;2.73;2.20;;;;;;;3.62;92.66;99136.84;5078145;28;20590;-63
2021/01/19 11:26:19;;;;;;;2.00;1.90;;;;;;;3.63;92.77;99135.88;5080051;28;20458;-64
2021/01/19 11:28:45;;;;;;;2.37;1.80;;;;;;;3.63;92.43;99135.03;5080868;28;20462;-63
2021/01/19 11:31:12;;;;;;;2.33;2.10;;;;;;;3.63;92.60;99135.88;5081090;28;20502;-63
2021/01/19 11:33:38;;;;;;;2.27;2.17;;;;;;;3.62;92.52;99123.63;5080934;28;20483;-64
2021/01/19 11:36:05;;;;;;;2.77;2.57;;;;;;;3.66;93.32;99122.41;5081552;28;20512;-63
2021/01/19 11:38:31;;;;;;;2.27;2.17;;;;;;;3.67;93.04;99126.72;5080975;28;20527;-63
2021/01/19 11:40:58;;;;;;;2.53;2.33;;;;;;;3.68;93.30;99107.28;5082198;28;20527;-64
2021/01/19 11:43:25;;;;;;;3.90;3.10;;;;;;;3.71;93.68;99116.75;5081430;28;20487;-64